createdAt,value
2022-09-21T00:01:09.647Z,102284.16
2022-09-21T00:03:37.024Z,102287.06
2022-09-21T00:06:08.415Z,102300.59
2022-09-21T00:08:35.072Z,102297.72
2022-09-21T00:11:03.558Z,102303.91
2022-09-21T00:13:33.129Z,102299.50
2022-09-21T00:15:59.787Z,102301.25
2022-09-21T00:18:26.536Z,102307.69
2022-09-21T00:20:53.044Z,102305.81
2022-09-21T00:23:20.436Z,102312.41
2022-09-21T00:25:47.089Z,102297.66
2022-09-21T00:28:13.554Z,102300.38
2022-09-21T00:30:39.997Z,102305.16
2022-09-21T00:33:06.971Z,102310.41
2022-09-21T00:35:33.821Z,102309.81
2022-09-21T00:38:02.445Z,102306.13
2022-09-21T00:40:29.912Z,102304.47
2022-09-21T00:43:16.923Z,102308.84
2022-09-21T00:45:44.132Z,102295.81
2022-09-21T00:48:10.753Z,102311.88
2022-09-21T00:50:41.477Z,102309.25
2022-09-21T00:53:08.169Z,102311.16
2022-09-21T00:55:39.895Z,102298.63
2022-09-21T00:58:10.124Z,102301.47
2022-09-21T01:00:37.455Z,102307.69
2022-09-21T01:03:04.952Z,102308.03
2022-09-21T01:05:31.585Z,102302.41
2022-09-21T01:08:02.087Z,102308.78
2022-09-21T01:10:33.099Z,102301.41
2022-09-21T01:13:25.407Z,102303.66
2022-09-21T01:16:01.553Z,102310.56
2022-09-21T01:18:35.310Z,102301.88
2022-09-21T01:21:21.686Z,102306.13
2022-09-21T01:24:21.259Z,102303.81
2022-09-21T01:27:09.305Z,102312.69
2022-09-21T01:29:38.419Z,102301.41
2022-09-21T01:32:15.501Z,102300.53
2022-09-21T01:34:49.327Z,102300.22
2022-09-21T01:37:26.832Z,102310.00
2022-09-21T01:39:56.695Z,102304.34
2022-09-21T01:42:24.990Z,102302.81
2022-09-21T01:44:51.951Z,102307.50
2022-09-21T01:47:18.778Z,102312.59
2022-09-21T01:49:49.131Z,102304.97
2022-09-21T01:52:21.550Z,102303.16
2022-09-21T01:54:52.098Z,102307.88
2022-09-21T01:57:36.728Z,102309.44
2022-09-21T02:00:05.809Z,102316.34
2022-09-21T02:02:41.761Z,102312.00
2022-09-21T02:05:08.694Z,102315.78
2022-09-21T02:07:35.957Z,102310.28
2022-09-21T02:10:03.098Z,102317.22
2022-09-21T02:12:32.174Z,102315.63
2022-09-21T02:14:59.895Z,102320.50
2022-09-21T02:17:50.212Z,102312.59
2022-09-21T02:20:30.564Z,102318.59
2022-09-21T02:23:14.271Z,102313.41
2022-09-21T02:25:43.817Z,102327.16
2022-09-21T02:28:27.260Z,102310.97
2022-09-21T02:31:17.883Z,102309.72
2022-09-21T02:33:59.347Z,102315.91
2022-09-21T02:36:35.627Z,102318.75
2022-09-21T02:39:11.516Z,102317.78
2022-09-21T02:41:41.517Z,102318.91
2022-09-21T02:44:13.176Z,102320.84
2022-09-21T02:46:49.148Z,102325.00
2022-09-21T02:49:26.341Z,102322.31
2022-09-21T02:51:56.792Z,102333.91
2022-09-21T02:54:27.057Z,102323.19
2022-09-21T02:56:54.533Z,102332.25
2022-09-21T02:59:23.678Z,102331.13
2022-09-21T03:01:50.650Z,102330.06
2022-09-21T03:04:17.631Z,102326.09
2022-09-21T03:06:44.076Z,102329.22
2022-09-21T03:09:10.542Z,102326.53
2022-09-21T03:11:36.983Z,102326.41
2022-09-21T03:14:08.618Z,102325.56
2022-09-21T03:16:36.252Z,102331.00
2022-09-21T03:19:02.797Z,102333.44
2022-09-21T03:21:29.754Z,102335.09
2022-09-21T03:23:56.224Z,102332.06
2022-09-21T03:26:22.898Z,102331.34
2022-09-21T03:28:50.324Z,102333.47
2022-09-21T03:31:17.111Z,102328.25
2022-09-21T03:33:43.649Z,102328.44
2022-09-21T03:36:10.355Z,102330.09
2022-09-21T03:38:37.803Z,102334.81
2022-09-21T03:41:05.113Z,102339.72
2022-09-21T03:43:32.227Z,102326.94
2022-09-21T03:45:58.786Z,102325.25
2022-09-21T03:48:25.293Z,102335.50
2022-09-21T03:50:51.913Z,102332.53
2022-09-21T03:53:18.374Z,102330.97
2022-09-21T03:55:44.870Z,102331.44
2022-09-21T03:58:11.315Z,102339.94
2022-09-21T04:00:39.207Z,102336.97
2022-09-21T04:03:05.732Z,102344.25
2022-09-21T04:05:32.442Z,102340.97
2022-09-21T04:07:58.926Z,102352.69
2022-09-21T04:10:29.295Z,102341.78
2022-09-21T04:13:01.263Z,102348.88
2022-09-21T04:15:28.547Z,102347.41
2022-09-21T04:17:55.476Z,102340.66
2022-09-21T04:20:22.291Z,102344.19
2022-09-21T04:22:48.944Z,102349.28
2022-09-21T04:25:16.183Z,102351.91
2022-09-21T04:27:42.848Z,102346.47
2022-09-21T04:30:12.149Z,102341.25
2022-09-21T04:32:38.938Z,102349.22
2022-09-21T04:35:06.118Z,102342.19
2022-09-21T04:37:32.591Z,102346.16
2022-09-21T04:39:59.129Z,102346.41
2022-09-21T04:42:27.603Z,102346.47
2022-09-21T04:44:54.151Z,102350.94
2022-09-21T04:47:23.643Z,102348.00
2022-09-21T04:49:50.273Z,102347.97
2022-09-21T04:52:19.158Z,102349.97
2022-09-21T04:54:47.097Z,102354.50
2022-09-21T04:57:14.796Z,102345.69
2022-09-21T04:59:41.288Z,102355.75
2022-09-21T05:02:07.775Z,102361.75
2022-09-21T05:04:34.249Z,102359.81
2022-09-21T05:07:00.845Z,102362.63
2022-09-21T05:09:45.965Z,102360.84
2022-09-21T05:12:12.428Z,102361.00
2022-09-21T05:14:38.889Z,102368.44
2022-09-21T05:17:05.402Z,102367.47
2022-09-21T05:19:31.900Z,102368.22
2022-09-21T05:21:58.369Z,102367.19
2022-09-21T05:24:24.875Z,102373.16
2022-09-21T05:26:51.356Z,102373.22
2022-09-21T05:29:18.204Z,102366.97
2022-09-21T05:31:56.166Z,102371.09
2022-09-21T05:34:44.124Z,102377.09
2022-09-21T05:37:37.854Z,102378.22
2022-09-21T05:40:05.672Z,102383.25
2022-09-21T05:42:32.797Z,102381.06
2022-09-21T05:44:59.678Z,102384.00
2022-09-21T05:47:40.127Z,102379.16
2022-09-21T05:50:28.245Z,102379.00
2022-09-21T05:53:16.299Z,102383.00
2022-09-21T05:55:55.558Z,102382.78
2022-09-21T05:58:40.602Z,102382.34
2022-09-21T06:01:18.117Z,102379.22
2022-09-21T06:03:44.956Z,102380.34
2022-09-21T06:06:11.428Z,102378.19
2022-09-21T06:08:37.908Z,102391.44
2022-09-21T06:11:04.526Z,102383.28
2022-09-21T06:13:31.204Z,102381.63
2022-09-21T06:15:58.543Z,102384.34
2022-09-21T06:18:24.990Z,102385.44
2022-09-21T06:20:51.484Z,102390.88
2022-09-21T06:23:24.169Z,102382.09
2022-09-21T06:25:58.184Z,102395.66
2022-09-21T06:28:25.533Z,102392.06
2022-09-21T06:30:53.395Z,102395.38
2022-09-21T06:33:21.307Z,102394.06
2022-09-21T06:35:59.177Z,102394.19
2022-09-21T06:38:26.836Z,102396.97
2022-09-21T06:40:53.887Z,102396.97
2022-09-21T06:43:20.433Z,102404.94
2022-09-21T06:45:54.836Z,102399.28
2022-09-21T06:48:21.808Z,102396.22
2022-09-21T06:50:48.611Z,102399.66
2022-09-21T06:53:15.517Z,102401.94
2022-09-21T06:55:42.222Z,102399.81
2022-09-21T06:58:08.729Z,102400.41
2022-09-21T07:00:35.586Z,102403.88
2022-09-21T07:03:02.048Z,102398.13
2022-09-21T07:05:28.515Z,102406.53
2022-09-21T07:07:59.158Z,102411.06
2022-09-21T07:10:26.358Z,102406.13
2022-09-21T07:12:52.980Z,102406.78
2022-09-21T07:15:19.628Z,102408.81
2022-09-21T07:17:51.777Z,102410.16
2022-09-21T07:20:18.832Z,102410.66
2022-09-21T07:22:45.263Z,102413.97
2022-09-21T07:25:11.835Z,102416.69
2022-09-21T07:27:38.682Z,102409.38
2022-09-21T07:30:06.428Z,102405.75
2022-09-21T07:32:33.024Z,102420.16
2022-09-21T07:34:59.542Z,102415.53
2022-09-21T07:37:26.267Z,102416.50
2022-09-21T07:39:53.391Z,102410.59
2022-09-21T07:42:21.558Z,102411.22
2022-09-21T07:44:48.447Z,102413.19
2022-09-21T07:47:15.417Z,102411.81
2022-09-21T07:49:42.688Z,102405.50
2022-09-21T07:52:11.103Z,102406.88
2022-09-21T07:54:37.902Z,102401.44
2022-09-21T07:57:22.957Z,102410.91
2022-09-21T07:59:49.433Z,102414.88
2022-09-21T08:02:16.123Z,102414.97
2022-09-21T08:04:42.633Z,102409.13
2022-09-21T08:07:09.107Z,102420.31
2022-09-21T08:09:35.592Z,102418.19
2022-09-21T08:12:02.280Z,102421.56
2022-09-21T08:14:29.360Z,102420.75
2022-09-21T08:16:55.894Z,102412.25
2022-09-21T08:19:25.840Z,102416.69
2022-09-21T08:21:57.274Z,102412.41
2022-09-21T08:24:26.745Z,102416.97
2022-09-21T08:26:54.031Z,102416.44
2022-09-21T08:29:20.525Z,102428.03
2022-09-21T08:31:47.389Z,102415.25
2022-09-21T08:34:14.343Z,102415.38
2022-09-21T08:36:41.137Z,102418.09
2022-09-21T08:39:08.453Z,102423.72
2022-09-21T08:41:59.341Z,102423.91
2022-09-21T08:44:33.599Z,102414.50
2022-09-21T08:47:08.482Z,102416.53
2022-09-21T08:49:36.881Z,102416.66
2022-09-21T08:52:07.400Z,102420.16
2022-09-21T08:54:51.780Z,102418.72
2022-09-21T08:57:19.110Z,102430.81
2022-09-21T08:59:47.266Z,102426.31
2022-09-21T09:02:41.037Z,102425.16
2022-09-21T09:05:48.651Z,102420.94
2022-09-21T09:08:24.306Z,102421.19
2022-09-21T09:11:09.353Z,102423.97
2022-09-21T09:13:48.538Z,102431.81
2022-09-21T09:16:21.184Z,102429.78
2022-09-21T09:18:51.813Z,102429.03
2022-09-21T09:21:30.255Z,102427.38
2022-09-21T09:24:20.623Z,102423.94
2022-09-21T09:27:02.115Z,102431.09
2022-09-21T09:29:28.520Z,102424.94
2022-09-21T09:31:55.985Z,102430.16
2022-09-21T09:34:26.604Z,102423.13
2022-09-21T09:36:59.600Z,102428.41
2022-09-21T09:39:28.486Z,102420.44
2022-09-21T09:42:07.238Z,102418.72
2022-09-21T09:45:18.352Z,102421.25
2022-09-21T09:47:50.715Z,102421.34
2022-09-21T09:50:32.686Z,102417.88
2022-09-21T09:53:15.141Z,102421.34
2022-09-21T09:55:45.337Z,102426.97
2022-09-21T09:58:31.007Z,102418.59
2022-09-21T10:00:58.958Z,102423.97
2022-09-21T10:03:27.172Z,102431.75
2022-09-21T10:06:11.966Z,102434.59
2022-09-21T10:08:39.921Z,102428.41
2022-09-21T10:11:06.498Z,102424.72
2022-09-21T10:13:38.318Z,102424.03
2022-09-21T10:16:25.114Z,102423.97
2022-09-21T10:18:58.899Z,102424.91
2022-09-21T10:21:35.553Z,102425.72
2022-09-21T10:24:05.073Z,102416.06
2022-09-21T10:26:34.901Z,102418.72
2022-09-21T10:29:07.287Z,102420.44
2022-09-21T10:31:34.463Z,102416.00
2022-09-21T10:34:04.034Z,102416.81
2022-09-21T10:36:35.744Z,102417.75
2022-09-21T10:39:19.530Z,102412.56
2022-09-21T10:41:59.424Z,102414.25
2022-09-21T10:44:38.711Z,102409.91
2022-09-21T10:47:31.326Z,102412.56
2022-09-21T10:50:00.685Z,102409.75
2022-09-21T10:52:40.282Z,102401.03
2022-09-21T10:55:14.554Z,102400.06
2022-09-21T10:57:42.201Z,102392.47
2022-09-21T11:00:35.700Z,102395.81
2022-09-21T11:03:26.784Z,102392.09
2022-09-21T11:05:53.659Z,102391.38
2022-09-21T11:08:35.927Z,102391.41
2022-09-21T11:11:30.361Z,102385.13
2022-09-21T11:14:06.201Z,102384.88
2022-09-21T11:16:37.708Z,102388.41
2022-09-21T11:19:28.694Z,102388.53
2022-09-21T11:22:05.830Z,102382.06
2022-09-21T11:24:51.935Z,102387.13
2022-09-21T11:27:22.956Z,102382.59
2022-09-21T11:30:00.462Z,102380.03
2022-09-21T11:32:40.528Z,102388.63
2022-09-21T11:35:27.310Z,102383.47
2022-09-21T11:38:20.685Z,102379.34
2022-09-21T11:41:00.698Z,102383.34
2022-09-21T11:43:36.119Z,102381.69
2022-09-21T11:46:27.528Z,102387.63
2022-09-21T11:49:00.062Z,102379.94
2022-09-21T11:51:38.839Z,102380.38
2022-09-21T11:54:31.698Z,102371.06
2022-09-21T11:57:19.078Z,102370.84
2022-09-21T12:00:07.545Z,102375.38
2022-09-21T12:02:59.437Z,102377.94
2022-09-21T12:06:04.712Z,102368.25
2022-09-21T12:09:01.321Z,102369.56
2022-09-21T12:12:03.701Z,102370.47
2022-09-21T12:14:42.648Z,102361.47
2022-09-21T12:17:27.663Z,102365.66
2022-09-21T12:20:20.934Z,102372.84
2022-09-21T12:22:49.542Z,102371.09
2022-09-21T12:25:27.441Z,102365.47
2022-09-21T12:28:11.529Z,102362.53
2022-09-21T12:30:39.908Z,102358.16
2022-09-21T12:33:14.060Z,102362.97
2022-09-21T12:36:10.419Z,102364.75
2022-09-21T12:38:43.048Z,102366.72
2022-09-21T12:41:34.422Z,102359.69
2022-09-21T12:44:17.720Z,102365.47
2022-09-21T12:46:49.075Z,102358.09
2022-09-21T12:49:31.537Z,102355.28
2022-09-21T12:52:03.653Z,102350.13
2022-09-21T12:54:42.201Z,102357.50
2022-09-21T12:57:42.517Z,102346.09
2022-09-21T13:00:12.360Z,102350.31
2022-09-21T13:02:50.865Z,102345.25
2022-09-21T13:05:23.364Z,102340.47
2022-09-21T13:08:04.946Z,102344.16
2022-09-21T13:10:55.717Z,102339.91
2022-09-21T13:13:26.900Z,102340.75
2022-09-21T13:15:53.752Z,102337.31
2022-09-21T13:18:35.091Z,102340.47
2022-09-21T13:21:22.094Z,102342.34
2022-09-21T13:23:56.832Z,102342.59
2022-09-21T13:26:51.437Z,102348.63
2022-09-21T13:29:18.939Z,102344.38
2022-09-21T13:32:04.448Z,102338.47
2022-09-21T13:34:35.249Z,102337.63
2022-09-21T13:37:20.060Z,102336.72
2022-09-21T13:40:01.875Z,102334.91
2022-09-21T13:42:28.517Z,102321.72
2022-09-21T13:44:55.998Z,102328.81
2022-09-21T13:47:33.681Z,102331.44
2022-09-21T13:50:03.223Z,102324.38
2022-09-21T13:52:40.453Z,102328.78
2022-09-21T13:55:22.831Z,102325.28
2022-09-21T13:57:54.373Z,102324.31
2022-09-21T14:00:28.005Z,102314.66
2022-09-21T14:02:58.803Z,102318.13
2022-09-21T14:05:27.061Z,102318.03
2022-09-21T14:08:00.167Z,102311.16
2022-09-21T14:10:27.364Z,102322.38
2022-09-21T14:12:53.856Z,102314.56
2022-09-21T14:15:20.246Z,102305.66
2022-09-21T14:18:16.788Z,102310.06
2022-09-21T14:21:08.217Z,102303.25
2022-09-21T14:23:36.630Z,102309.41
2022-09-21T14:26:21.124Z,102303.25
2022-09-21T14:28:51.356Z,102301.47
2022-09-21T14:31:26.289Z,102295.22
2022-09-21T14:33:59.394Z,102294.41
2022-09-21T14:36:42.042Z,102285.63
2022-09-21T14:39:39.185Z,102294.31
2022-09-21T14:42:15.892Z,102297.09
2022-09-21T14:44:42.600Z,102285.56
2022-09-21T14:47:18.465Z,102281.19
2022-09-21T14:50:05.568Z,102283.81
2022-09-21T14:52:42.214Z,102284.63
2022-09-21T14:55:22.634Z,102277.53
2022-09-21T14:58:17.141Z,102281.97
2022-09-21T15:00:46.251Z,102281.13
2022-09-21T15:03:39.241Z,102272.00
2022-09-21T15:06:28.700Z,102273.94
2022-09-21T15:09:29.455Z,102274.81
2022-09-21T15:12:01.996Z,102277.63
2022-09-21T15:14:36.792Z,102273.06
2022-09-21T15:17:24.355Z,102266.97
2022-09-21T15:20:02.938Z,102273.22
2022-09-21T15:22:47.711Z,102267.97
2022-09-21T15:25:20.278Z,102274.16
2022-09-21T15:27:47.440Z,102263.56
2022-09-21T15:30:26.268Z,102265.19
2022-09-21T15:32:58.126Z,102270.41
2022-09-21T15:35:30.452Z,102264.28
2022-09-21T15:38:00.946Z,102261.59
2022-09-21T15:40:36.553Z,102264.97
2022-09-21T15:43:09.019Z,102258.13
2022-09-21T15:45:55.736Z,102260.00
2022-09-21T15:48:26.091Z,102259.09
2022-09-21T15:50:57.908Z,102253.81
2022-09-21T15:53:36.475Z,102261.66
2022-09-21T15:56:03.089Z,102256.53
2022-09-21T15:58:37.298Z,102253.91
2022-09-21T16:01:15.817Z,102259.13
2022-09-21T16:03:45.364Z,102254.72
2022-09-21T16:06:28.382Z,102267.88
2022-09-21T16:08:55.118Z,102267.88
2022-09-21T16:11:25.668Z,102262.34
2022-09-21T16:14:32.053Z,102272.84
2022-09-21T16:17:13.756Z,102267.59
2022-09-21T16:19:44.580Z,102273.47
2022-09-21T16:22:17.559Z,102273.66
2022-09-21T16:24:52.829Z,102271.75
2022-09-21T16:27:21.427Z,102264.75
2022-09-21T16:29:50.177Z,102276.16
2022-09-21T16:32:28.138Z,102271.78
2022-09-21T16:35:31.461Z,102280.66
2022-09-21T16:37:58.915Z,102274.53
2022-09-21T16:40:28.815Z,102279.63
2022-09-21T16:42:56.074Z,102276.97
2022-09-21T16:45:29.672Z,102282.41
2022-09-21T16:47:57.630Z,102270.09
2022-09-21T16:50:24.534Z,102275.59
2022-09-21T16:52:52.507Z,102269.31
2022-09-21T16:55:22.419Z,102273.66
2022-09-21T16:57:50.830Z,102276.47
2022-09-21T17:00:22.101Z,102276.59
2022-09-21T17:02:48.929Z,102277.38
2022-09-21T17:05:39.210Z,102275.66
2022-09-21T17:08:28.719Z,102275.63
2022-09-21T17:22:22.480Z,102284.34
2022-09-21T17:25:20.250Z,102277.38
2022-09-21T17:27:54.446Z,102284.38
2022-09-21T17:34:15.165Z,102288.66
2022-09-21T17:37:00.631Z,102285.19
2022-09-21T17:39:30.206Z,102284.19
2022-09-21T17:45:43.061Z,102291.16
2022-09-21T17:51:07.419Z,102295.66
2022-09-21T17:53:41.876Z,102285.81
2022-09-21T17:56:26.022Z,102288.59
2022-09-21T17:59:14.701Z,102299.19
2022-09-21T18:12:16.353Z,102299.94
2022-09-21T18:14:55.772Z,102298.28
2022-09-21T18:18:05.272Z,102304.97
2022-09-21T18:32:06.716Z,102304.69
2022-09-21T18:35:13.529Z,102309.09
2022-09-21T18:37:55.161Z,102310.56
2022-09-21T18:40:36.714Z,102314.66
2022-09-21T18:43:36.417Z,102309.13
2022-09-21T18:46:20.810Z,102313.72
2022-09-21T18:49:13.775Z,102305.03
2022-09-21T18:51:47.321Z,102310.25
2022-09-21T18:54:20.849Z,102315.44
2022-09-21T18:59:42.835Z,102318.75
2022-09-21T19:06:11.984Z,102310.72
2022-09-21T19:08:54.389Z,102310.66
2022-09-21T19:11:52.202Z,102318.41
2022-09-21T19:14:37.185Z,102310.56
2022-09-21T19:17:20.784Z,102313.06
2022-09-21T19:20:25.173Z,102317.50
2022-09-21T19:23:00.259Z,102317.75
2022-09-21T19:25:47.288Z,102316.72
2022-09-21T19:28:53.521Z,102324.13
2022-09-21T19:31:20.531Z,102323.03
2022-09-21T19:33:51.651Z,102322.91
2022-09-21T19:36:19.308Z,102316.69
2022-09-21T19:38:45.973Z,102316.94
2022-09-21T19:41:31.677Z,102318.97
2022-09-21T19:44:35.899Z,102321.75
2022-09-21T19:47:18.473Z,102319.66
2022-09-21T19:49:56.617Z,102317.13
2022-09-21T19:52:32.172Z,102323.00
2022-09-21T19:55:17.266Z,102322.06
2022-09-21T19:58:02.886Z,102318.16
2022-09-21T20:00:30.218Z,102329.66
2022-09-21T20:03:03.856Z,102325.91
2022-09-21T20:05:51.617Z,102334.88
2022-09-21T20:08:50.192Z,102331.28
2022-09-21T20:11:23.520Z,102333.94
2022-09-21T20:14:30.101Z,102333.41
2022-09-21T20:17:10.660Z,102326.22
2022-09-21T20:19:40.066Z,102326.47
2022-09-21T20:22:17.433Z,102332.53
2022-09-21T20:25:03.666Z,102331.75
2022-09-21T20:27:55.504Z,102331.50
2022-09-21T20:30:24.507Z,102336.41
2022-09-21T20:32:53.733Z,102335.03
2022-09-21T20:35:31.168Z,102333.59
2022-09-21T20:38:02.184Z,102343.94
2022-09-21T20:40:33.212Z,102330.09
2022-09-21T20:43:03.916Z,102333.97
2022-09-21T20:45:33.637Z,102333.75
2022-09-21T20:48:15.731Z,102336.13
2022-09-21T20:50:49.445Z,102337.56
2022-09-21T20:53:16.742Z,102330.78
2022-09-21T20:55:55.438Z,102329.91
2022-09-21T20:58:22.392Z,102332.00
2022-09-21T21:00:52.203Z,102335.44
2022-09-21T21:03:20.596Z,102331.09
2022-09-21T21:05:47.071Z,102331.09
2022-09-21T21:08:13.536Z,102338.66
2022-09-21T21:10:46.986Z,102331.00
2022-09-21T21:13:13.698Z,102333.59
2022-09-21T21:15:40.161Z,102331.25
2022-09-21T21:18:10.157Z,102324.84
2022-09-21T21:21:14.020Z,102331.09
2022-09-21T21:23:59.064Z,102338.66
2022-09-21T21:26:44.209Z,102332.88
2022-09-21T21:29:15.004Z,102334.56
2022-09-21T21:31:53.907Z,102339.13
2022-09-21T21:34:20.764Z,102332.25
2022-09-21T21:36:47.205Z,102332.25
2022-09-21T21:39:14.331Z,102347.38
2022-09-21T21:41:43.229Z,102338.28
2022-09-21T21:44:11.520Z,102336.41
2022-09-21T21:46:38.140Z,102344.06
2022-09-21T21:49:05.045Z,102337.25
2022-09-21T21:51:31.599Z,102336.41
2022-09-21T21:53:58.240Z,102340.91
2022-09-21T21:56:24.721Z,102336.81
2022-09-21T21:58:56.134Z,102338.53
2022-09-21T22:01:26.322Z,102330.22
2022-09-21T22:03:58.162Z,102331.84
2022-09-21T22:06:25.671Z,102339.66
2022-09-21T22:08:52.744Z,102334.50
2022-09-21T22:11:19.941Z,102329.47
2022-09-21T22:13:47.347Z,102334.41
2022-09-21T22:16:16.268Z,102336.50
2022-09-21T22:18:43.346Z,102334.19
2022-09-21T22:21:15.212Z,102328.38
2022-09-21T22:23:42.196Z,102326.50
2022-09-21T22:26:14.177Z,102329.91
2022-09-21T22:28:42.512Z,102326.59
2022-09-21T22:31:18.048Z,102329.91
2022-09-21T22:33:45.164Z,102328.03
2022-09-21T22:36:19.470Z,102327.81
2022-09-21T22:38:46.559Z,102322.56
2022-09-21T22:41:22.715Z,102331.25
2022-09-21T22:43:51.300Z,102322.56
2022-09-21T22:46:18.271Z,102325.97
2022-09-21T22:48:45.514Z,102323.22
2022-09-21T22:51:16.226Z,102317.63
2022-09-21T22:53:43.252Z,102321.75
2022-09-21T22:56:11.721Z,102322.53
2022-09-21T22:58:42.111Z,102323.84
2022-09-21T23:01:12.600Z,102319.06
2022-09-21T23:03:40.508Z,102322.47
2022-09-21T23:06:09.625Z,102316.72
2022-09-21T23:08:36.375Z,102313.28
2022-09-21T23:11:23.570Z,102318.22
2022-09-21T23:13:50.037Z,102320.47
2022-09-21T23:16:17.968Z,102316.91
2022-09-21T23:18:45.945Z,102318.56
2022-09-21T23:21:17.369Z,102310.59
2022-09-21T23:24:05.834Z,102314.88
2022-09-21T23:26:33.091Z,102315.25
2022-09-21T23:29:05.334Z,102320.66
2022-09-21T23:31:32.367Z,102315.44
2022-09-21T23:34:00.610Z,102316.31
2022-09-21T23:36:28.890Z,102305.00
2022-09-21T23:38:55.680Z,102316.84
2022-09-21T23:41:24.376Z,102316.78
2022-09-21T23:43:51.573Z,102313.41
2022-09-21T23:46:21.414Z,102316.88
2022-09-21T23:48:48.550Z,102304.97
2022-09-21T23:51:15.537Z,102307.75
2022-09-21T23:53:42.613Z,102307.63
2022-09-21T23:56:14.122Z,102310.84
2022-09-21T23:58:40.659Z,102303.03
